Terminal Aerodrome Forecast
Issued by NWS

Home | Current Version | Previous Version | Graphics & Text | Print | Product List | Glossary On
Versions: 1 2 3 4 5 6 7 8 9 10 11 12 13 14 15 16 17 18 19 20 21 22
799
FTUS43 KMPX 230520
TAFRWF
TAF
KRWF 230520Z 2306/2406 30008KT P6SM OVC012
     FM230800 29006KT 3SM BR OVC008
     FM231000 29005KT 2SM BR OVC004
     FM231400 27004KT 4SM BR OVC009
     FM231700 VRB03KT P6SM OVC015
     FM232100 13003KT P6SM OVC023=

USA.gov is the U.S. government's official web portal to all federal, state and local government web resources and services.